createdAt,value
2019-03-31T00:02:24.388Z,5.49
2019-03-31T00:04:57.304Z,5.51
2019-03-31T00:07:46.256Z,5.54
2019-03-31T00:10:17.713Z,5.57
2019-03-31T00:12:49.172Z,5.57
2019-03-31T00:15:20.608Z,5.60
2019-03-31T00:17:52.076Z,5.62
2019-03-31T00:20:23.512Z,5.64
2019-03-31T00:22:54.966Z,5.66
2019-03-31T00:25:26.411Z,5.67
2019-03-31T00:27:57.872Z,5.66
2019-03-31T00:30:29.310Z,5.66
2019-03-31T00:33:01.996Z,5.66
2019-03-31T00:35:33.444Z,5.67
2019-03-31T00:38:04.915Z,5.68
2019-03-31T00:40:36.676Z,5.67
2019-03-31T00:43:08.717Z,5.66
2019-03-31T00:45:40.052Z,5.69
2019-03-31T00:48:12.569Z,5.69
2019-03-31T00:50:44.011Z,5.68
2019-03-31T00:53:16.388Z,5.70
2019-03-31T00:55:47.833Z,5.73
2019-03-31T00:58:22.337Z,5.72
2019-03-31T01:00:55.268Z,5.73
2019-03-31T01:03:29.600Z,5.74
2019-03-31T01:06:01.004Z,5.76
2019-03-31T01:08:35.072Z,5.76
2019-03-31T01:11:14.118Z,5.76
2019-03-31T01:13:46.729Z,5.82
2019-03-31T01:16:18.174Z,5.81
2019-03-31T01:18:49.946Z,5.83
2019-03-31T01:21:21.756Z,5.86
2019-03-31T01:23:53.133Z,5.92
2019-03-31T01:26:24.606Z,5.94
2019-03-31T01:28:57.328Z,5.92
2019-03-31T01:31:29.102Z,5.87
2019-03-31T01:34:00.475Z,5.87
2019-03-31T01:36:32.863Z,5.85
2019-03-31T01:39:05.936Z,5.82
2019-03-31T01:41:38.919Z,5.78
2019-03-31T01:44:10.281Z,5.75
2019-03-31T01:46:41.623Z,5.72
2019-03-31T01:49:15.330Z,5.70
2019-03-31T01:51:46.793Z,5.63
2019-03-31T01:54:18.242Z,5.61
2019-03-31T01:56:49.694Z,5.60
2019-03-31T01:59:21.131Z,5.58
2019-03-31T02:02:03.520Z,5.57
2019-03-31T02:04:28.033Z,5.57
2019-03-31T02:06:59.511Z,5.55
2019-03-31T02:09:31.234Z,5.55
2019-03-31T02:12:02.712Z,5.55
2019-03-31T02:14:38.432Z,5.60
2019-03-31T02:17:09.911Z,5.63
2019-03-31T02:19:44.415Z,5.62
2019-03-31T02:22:17.117Z,5.61
2019-03-31T02:24:48.548Z,5.61
2019-03-31T02:27:21.244Z,5.61
2019-03-31T02:29:52.686Z,5.58
2019-03-31T02:32:25.225Z,5.55
2019-03-31T02:34:58.034Z,5.53
2019-03-31T02:37:30.755Z,5.52
2019-03-31T02:40:02.227Z,5.54
2019-03-31T02:42:35.457Z,5.56
2019-03-31T02:45:08.896Z,5.58
2019-03-31T02:47:40.245Z,5.66
2019-03-31T02:50:16.567Z,5.76
2019-03-31T02:52:49.278Z,5.85
2019-03-31T02:55:20.714Z,5.97
2019-03-31T02:57:52.178Z,6.05
2019-03-31T03:00:23.620Z,6.12
2019-03-31T03:02:56.623Z,5.80
2019-03-31T03:05:28.050Z,5.70
2019-03-31T03:07:59.526Z,5.79
2019-03-31T03:10:31.419Z,5.95
2019-03-31T03:13:04.263Z,6.05
2019-03-31T03:19:47.935Z,6.26
2019-03-31T03:22:19.359Z,6.54
2019-03-31T03:24:50.813Z,6.77
2019-03-31T03:27:23.484Z,6.92
2019-03-31T03:29:54.942Z,7.07
2019-03-31T03:32:26.396Z,7.16
2019-03-31T03:34:57.851Z,7.24
2019-03-31T03:37:29.300Z,7.33
2019-03-31T03:40:02.938Z,7.36
2019-03-31T03:42:34.506Z,7.39
2019-03-31T03:45:08.574Z,7.41
2019-03-31T03:47:40.020Z,7.43
2019-03-31T03:50:11.493Z,7.44
2019-03-31T03:52:42.917Z,7.46
2019-03-31T03:55:15.614Z,7.49
2019-03-31T03:57:48.276Z,7.48
2019-03-31T04:00:20.965Z,7.49
2019-03-31T04:02:54.566Z,7.51
2019-03-31T04:05:27.242Z,7.54
2019-03-31T04:07:59.930Z,7.58
2019-03-31T04:10:48.558Z,7.63
2019-03-31T04:13:21.260Z,7.69
2019-03-31T04:15:53.939Z,7.72
2019-03-31T04:18:26.790Z,7.72
2019-03-31T04:20:59.607Z,7.73
2019-03-31T04:23:32.290Z,7.71
2019-03-31T04:26:03.747Z,7.72
2019-03-31T04:28:35.188Z,7.71
2019-03-31T04:31:07.883Z,7.74
2019-03-31T04:33:50.252Z,7.74
2019-03-31T04:36:15.686Z,7.76
2019-03-31T04:38:47.144Z,7.79
2019-03-31T04:41:19.817Z,7.82
2019-03-31T04:43:52.508Z,7.83
2019-03-31T04:46:23.961Z,7.86
2019-03-31T04:49:01.556Z,7.91
2019-03-31T04:51:39.754Z,8.04
2019-03-31T04:54:13.672Z,8.17
2019-03-31T04:56:46.345Z,8.30
2019-03-31T04:59:19.953Z,8.33
2019-03-31T05:01:51.422Z,8.38
2019-03-31T05:04:22.840Z,8.43
2019-03-31T05:06:54.303Z,8.47
2019-03-31T05:09:25.755Z,8.51
2019-03-31T05:11:58.433Z,8.57
2019-03-31T05:14:32.032Z,8.62
2019-03-31T05:17:03.492Z,8.65
2019-03-31T05:19:34.930Z,8.67
2019-03-31T05:22:06.392Z,8.64
2019-03-31T05:24:37.836Z,8.66
2019-03-31T05:27:10.230Z,8.70
2019-03-31T05:29:41.668Z,8.74
2019-03-31T05:32:13.113Z,8.84
2019-03-31T05:34:45.797Z,8.92
2019-03-31T05:37:19.468Z,8.99
2019-03-31T05:39:52.087Z,9.04
2019-03-31T05:42:24.453Z,9.66
2019-03-31T05:44:57.121Z,9.64
2019-03-31T05:47:29.827Z,9.63
2019-03-31T05:50:02.897Z,9.62
2019-03-31T05:52:34.266Z,10.24
2019-03-31T05:55:07.340Z,10.03
2019-03-31T05:57:38.702Z,9.99
2019-03-31T06:00:12.591Z,10.03
2019-03-31T06:02:45.287Z,10.04
2019-03-31T06:05:16.746Z,10.09
2019-03-31T06:07:48.185Z,10.15
2019-03-31T06:10:19.630Z,10.30
2019-03-31T06:12:52.323Z,10.34
2019-03-31T06:15:23.763Z,10.47
2019-03-31T06:17:55.215Z,10.91
2019-03-31T06:20:27.585Z,10.91
2019-03-31T06:22:59.047Z,10.94
2019-03-31T06:25:30.498Z,10.96
2019-03-31T06:28:01.944Z,10.92
2019-03-31T06:30:33.397Z,11.00
2019-03-31T06:33:04.843Z,11.15
2019-03-31T06:35:36.295Z,11.24
2019-03-31T06:38:07.774Z,11.87
2019-03-31T06:40:41.472Z,11.92
2019-03-31T06:43:13.134Z,11.91
2019-03-31T06:45:44.583Z,11.81
2019-03-31T06:48:16.999Z,12.00
2019-03-31T06:50:48.541Z,13.51
2019-03-31T06:53:20.289Z,15.24
2019-03-31T06:55:51.631Z,15.49
2019-03-31T06:58:23.119Z,14.91
2019-03-31T07:00:54.785Z,16.29
2019-03-31T07:03:26.337Z,16.66
2019-03-31T07:05:57.773Z,16.38
2019-03-31T07:08:29.712Z,15.79
2019-03-31T07:11:02.585Z,15.38
2019-03-31T07:13:33.976Z,16.61
2019-03-31T07:16:05.448Z,16.44
2019-03-31T07:18:38.065Z,16.53
2019-03-31T07:21:09.810Z,17.02
2019-03-31T07:23:41.257Z,16.95
2019-03-31T07:26:12.775Z,16.51
2019-03-31T07:28:44.197Z,16.15
2019-03-31T07:31:15.634Z,16.27
2019-03-31T07:33:47.100Z,16.22
2019-03-31T07:36:20.536Z,15.89
2019-03-31T07:38:54.065Z,15.75
2019-03-31T07:41:26.109Z,15.82
2019-03-31T07:43:58.212Z,15.87
2019-03-31T07:46:30.199Z,15.69
2019-03-31T07:49:01.613Z,16.25
2019-03-31T07:51:33.076Z,15.56
2019-03-31T07:54:04.532Z,15.31
2019-03-31T07:56:35.950Z,15.59
2019-03-31T07:59:09.034Z,15.78
2019-03-31T08:01:41.942Z,15.91
2019-03-31T08:04:13.378Z,16.02
2019-03-31T08:06:44.850Z,16.52
2019-03-31T08:09:16.286Z,16.78
2019-03-31T08:11:47.735Z,17.32
2019-03-31T08:14:19.191Z,16.87
2019-03-31T08:16:50.665Z,16.19
2019-03-31T08:19:24.865Z,16.66
2019-03-31T08:21:56.322Z,16.84
2019-03-31T08:24:27.763Z,16.99
2019-03-31T08:27:00.759Z,16.66
2019-03-31T08:29:32.215Z,15.87
2019-03-31T08:32:05.234Z,16.17
2019-03-31T08:34:37.880Z,16.26
2019-03-31T08:37:09.319Z,16.09
2019-03-31T08:39:42.816Z,16.03
2019-03-31T08:42:14.391Z,15.83
2019-03-31T08:44:52.764Z,15.06
2019-03-31T08:47:28.635Z,15.33
2019-03-31T08:50:05.543Z,15.35
2019-03-31T08:52:44.716Z,15.93
2019-03-31T08:55:19.093Z,15.23
2019-03-31T08:57:53.121Z,15.04
2019-03-31T09:00:27.919Z,14.72
2019-03-31T09:02:59.890Z,14.61
2019-03-31T09:05:31.366Z,15.24
2019-03-31T09:08:07.509Z,14.03
2019-03-31T09:10:45.204Z,13.46
2019-03-31T09:13:17.664Z,13.02
2019-03-31T09:15:51.939Z,12.99
2019-03-31T09:18:23.270Z,13.10
2019-03-31T09:20:55.920Z,13.22
2019-03-31T09:23:28.872Z,13.23
2019-03-31T09:26:01.271Z,13.36
2019-03-31T09:28:32.747Z,13.27
2019-03-31T09:31:04.491Z,12.82
2019-03-31T09:33:39.222Z,12.69
2019-03-31T09:36:16.557Z,12.88
2019-03-31T09:38:48.473Z,13.64
2019-03-31T09:41:21.373Z,13.86
2019-03-31T09:43:52.782Z,13.69
2019-03-31T09:46:24.633Z,13.39
2019-03-31T09:48:57.988Z,13.52
2019-03-31T09:51:30.843Z,13.54
2019-03-31T09:54:02.302Z,13.33
2019-03-31T09:56:33.657Z,13.33
2019-03-31T09:59:05.207Z,13.73
2019-03-31T10:01:39.101Z,13.64
2019-03-31T10:04:10.529Z,13.37
2019-03-31T10:06:42.007Z,13.81
2019-03-31T10:09:13.489Z,13.51
2019-03-31T10:11:47.412Z,14.18
2019-03-31T10:14:21.497Z,14.40
2019-03-31T10:16:59.167Z,14.65
2019-03-31T10:19:32.163Z,14.65
2019-03-31T10:22:03.609Z,14.04
2019-03-31T10:24:35.061Z,13.56
2019-03-31T10:27:06.518Z,13.51
2019-03-31T10:29:37.957Z,13.35
2019-03-31T10:32:11.043Z,13.59
2019-03-31T10:34:44.014Z,13.38
2019-03-31T10:37:15.391Z,12.87
2019-03-31T10:39:48.077Z,13.05
2019-03-31T10:42:20.520Z,13.17
2019-03-31T10:44:51.895Z,13.49
2019-03-31T10:47:23.350Z,13.93
2019-03-31T10:49:54.801Z,13.54
2019-03-31T10:52:26.259Z,13.33
2019-03-31T10:54:58.619Z,13.26
2019-03-31T10:57:30.093Z,13.36
2019-03-31T11:00:03.171Z,13.66
2019-03-31T11:02:34.833Z,13.59
2019-03-31T11:05:11.537Z,13.53
2019-03-31T11:07:47.860Z,13.63
2019-03-31T11:10:19.145Z,13.65
2019-03-31T11:12:51.797Z,13.57
2019-03-31T11:15:23.166Z,13.74
2019-03-31T11:17:54.602Z,13.87
2019-03-31T11:20:28.221Z,14.24
2019-03-31T11:23:07.238Z,14.17
2019-03-31T11:25:40.398Z,14.00
2019-03-31T11:28:11.746Z,13.84
2019-03-31T11:30:44.889Z,13.78
2019-03-31T11:33:17.423Z,13.67
2019-03-31T11:35:48.875Z,13.61
2019-03-31T11:38:20.516Z,13.96
2019-03-31T11:40:53.043Z,13.75
2019-03-31T11:43:24.475Z,13.53
2019-03-31T11:45:55.906Z,13.22
2019-03-31T11:48:27.375Z,12.94
2019-03-31T11:51:00.435Z,12.75
2019-03-31T11:53:31.811Z,13.00
2019-03-31T11:56:03.262Z,13.69
2019-03-31T11:58:43.196Z,13.39
2019-03-31T12:01:13.518Z,13.43
2019-03-31T12:03:45.088Z,13.57
2019-03-31T12:06:19.194Z,14.21
2019-03-31T12:08:50.729Z,13.72
2019-03-31T12:11:24.491Z,13.51
2019-03-31T12:13:59.482Z,13.29
2019-03-31T12:16:34.022Z,13.06
2019-03-31T12:19:12.070Z,13.03
2019-03-31T12:21:45.501Z,13.26
2019-03-31T12:24:18.484Z,13.25
2019-03-31T12:26:49.870Z,13.10
2019-03-31T12:29:22.732Z,12.93
2019-03-31T12:32:02.657Z,13.12
2019-03-31T12:34:35.265Z,13.25
2019-03-31T12:37:06.735Z,13.55
2019-03-31T12:39:38.189Z,13.48
2019-03-31T12:42:09.691Z,13.32
2019-03-31T12:44:41.086Z,12.98
2019-03-31T12:47:12.568Z,12.93
2019-03-31T12:49:45.951Z,12.70
2019-03-31T12:52:18.923Z,12.43
2019-03-31T12:54:50.272Z,12.49
2019-03-31T12:57:21.704Z,12.33
2019-03-31T12:59:55.620Z,12.54
2019-03-31T13:02:27.080Z,12.28
2019-03-31T13:04:59.469Z,12.46
2019-03-31T13:07:30.928Z,12.62
2019-03-31T13:10:03.755Z,12.69
2019-03-31T13:12:37.191Z,12.32
2019-03-31T13:15:11.498Z,12.09
2019-03-31T13:17:44.373Z,11.76
2019-03-31T13:20:15.850Z,12.01
2019-03-31T13:22:48.847Z,12.24
2019-03-31T13:25:23.717Z,12.59
2019-03-31T13:27:57.574Z,12.57
2019-03-31T13:30:32.919Z,12.29
2019-03-31T13:33:06.008Z,12.28
2019-03-31T13:35:38.382Z,12.33
2019-03-31T13:38:11.886Z,12.29
2019-03-31T13:40:43.464Z,12.37
2019-03-31T13:43:16.102Z,12.00
2019-03-31T13:45:49.225Z,11.76
2019-03-31T13:48:21.811Z,12.07
2019-03-31T13:50:54.763Z,12.16
2019-03-31T13:53:29.133Z,12.11
2019-03-31T13:56:00.501Z,12.18
2019-03-31T13:58:33.600Z,12.12
2019-03-31T14:01:05.250Z,11.79
2019-03-31T14:03:36.654Z,11.71
2019-03-31T14:06:08.092Z,12.05
2019-03-31T14:08:39.515Z,12.00
2019-03-31T14:11:10.971Z,12.05
2019-03-31T14:13:44.931Z,12.28
2019-03-31T14:16:16.339Z,12.31
2019-03-31T14:18:48.710Z,12.16
2019-03-31T14:21:20.192Z,12.13
2019-03-31T14:23:51.608Z,12.07
2019-03-31T14:26:23.067Z,11.95
2019-03-31T14:28:54.503Z,12.09
2019-03-31T14:31:25.995Z,12.18
2019-03-31T14:33:57.448Z,11.99
2019-03-31T14:36:29.200Z,11.93
2019-03-31T14:39:00.638Z,12.03
2019-03-31T14:41:35.531Z,12.00
2019-03-31T14:44:09.101Z,11.91
2019-03-31T14:46:41.769Z,11.80
2019-03-31T14:49:13.198Z,12.03
2019-03-31T14:51:44.633Z,12.07
2019-03-31T14:54:16.082Z,12.21
2019-03-31T14:56:47.660Z,12.30
2019-03-31T14:59:19.124Z,12.23
2019-03-31T15:01:51.699Z,12.19
2019-03-31T15:04:24.077Z,12.34
2019-03-31T15:06:55.546Z,12.41
2019-03-31T15:09:28.221Z,12.41
2019-03-31T15:12:00.870Z,12.53
2019-03-31T15:14:34.489Z,12.35
2019-03-31T15:17:07.204Z,12.33
2019-03-31T15:19:38.612Z,12.33
2019-03-31T15:22:10.090Z,12.19
2019-03-31T15:24:43.153Z,12.10
2019-03-31T15:27:14.530Z,12.07
2019-03-31T15:29:45.934Z,11.96
2019-03-31T15:32:17.384Z,11.88
2019-03-31T15:34:48.880Z,11.87
2019-03-31T15:37:21.601Z,11.88
2019-03-31T15:39:53.002Z,11.81
2019-03-31T15:42:26.685Z,11.77
2019-03-31T15:45:00.505Z,11.81
2019-03-31T15:47:31.963Z,11.89
2019-03-31T15:50:04.172Z,11.80
2019-03-31T15:52:36.964Z,11.58
2019-03-31T15:55:09.733Z,11.42
2019-03-31T15:57:41.220Z,11.29
2019-03-31T16:00:12.946Z,11.21
2019-03-31T16:02:44.325Z,11.14
2019-03-31T16:05:17.294Z,11.08
2019-03-31T16:07:49.776Z,10.99
2019-03-31T16:10:23.597Z,10.98
2019-03-31T16:12:55.043Z,10.98
2019-03-31T16:15:26.495Z,10.96
2019-03-31T16:17:59.507Z,10.97
2019-03-31T16:20:30.935Z,10.92
2019-03-31T16:23:02.688Z,10.91
2019-03-31T16:25:38.678Z,10.88
2019-03-31T16:28:10.220Z,10.83
2019-03-31T16:30:41.799Z,10.81
2019-03-31T16:33:14.652Z,10.79
2019-03-31T16:35:46.077Z,10.74
2019-03-31T16:38:17.554Z,10.69
2019-03-31T16:40:48.999Z,10.65
2019-03-31T16:43:20.449Z,10.59
2019-03-31T16:45:54.373Z,10.52
2019-03-31T16:48:26.719Z,10.44
2019-03-31T16:50:58.176Z,10.35
2019-03-31T16:53:29.627Z,10.27
2019-03-31T16:56:04.321Z,10.20
2019-03-31T16:58:36.844Z,10.13
2019-03-31T17:01:11.693Z,10.02
2019-03-31T17:03:43.335Z,9.94
2019-03-31T17:06:14.861Z,9.82
2019-03-31T17:08:46.662Z,9.71
2019-03-31T17:11:19.314Z,9.62
2019-03-31T17:13:52.687Z,9.50
2019-03-31T17:16:24.393Z,9.39
2019-03-31T17:18:57.162Z,9.33
2019-03-31T17:21:28.711Z,9.22
2019-03-31T17:24:02.477Z,9.05
2019-03-31T17:26:34.785Z,8.92
2019-03-31T17:29:06.495Z,8.82
2019-03-31T17:31:40.097Z,8.76
2019-03-31T17:34:17.991Z,8.63
2019-03-31T17:36:52.420Z,8.55
2019-03-31T17:39:30.471Z,8.45
2019-03-31T17:42:01.916Z,8.32
2019-03-31T17:44:34.933Z,8.31
2019-03-31T17:47:09.731Z,8.19
2019-03-31T17:49:42.461Z,8.10
2019-03-31T17:52:13.963Z,8.00
2019-03-31T17:54:45.654Z,7.98
2019-03-31T17:57:23.427Z,7.95
2019-03-31T17:59:59.606Z,7.96
2019-03-31T18:02:31.323Z,7.89
2019-03-31T18:05:09.389Z,7.80
2019-03-31T18:07:43.934Z,7.88
2019-03-31T18:10:21.182Z,7.71
2019-03-31T18:12:50.852Z,7.59
2019-03-31T18:15:22.186Z,7.52
2019-03-31T18:17:54.795Z,7.45
2019-03-31T18:20:26.236Z,7.45
2019-03-31T18:22:59.371Z,7.39
2019-03-31T18:25:36.088Z,7.38
2019-03-31T18:28:07.845Z,7.36
2019-03-31T18:30:39.753Z,7.21
2019-03-31T18:33:12.628Z,7.16
2019-03-31T18:35:44.550Z,7.09
2019-03-31T18:38:17.167Z,7.03
2019-03-31T18:40:49.367Z,7.01
2019-03-31T18:43:25.188Z,6.96
2019-03-31T18:46:01.222Z,6.92
2019-03-31T18:48:37.006Z,6.87
2019-03-31T18:51:08.806Z,6.77
2019-03-31T18:53:46.773Z,6.66
2019-03-31T18:56:25.956Z,6.51
2019-03-31T18:58:59.044Z,6.49
2019-03-31T19:01:39.801Z,6.40
2019-03-31T19:04:15.039Z,6.27
2019-03-31T19:06:52.925Z,6.22
2019-03-31T19:09:38.777Z,6.08
2019-03-31T19:12:31.776Z,5.96
2019-03-31T19:15:13.952Z,5.85
2019-03-31T19:17:50.777Z,5.88
2019-03-31T19:20:43.381Z,5.90
2019-03-31T19:23:36.059Z,5.82
2019-03-31T19:26:48.133Z,5.81
2019-03-31T19:29:34.579Z,5.76
2019-03-31T19:32:25.619Z,5.68
2019-03-31T19:35:09.651Z,5.66
2019-03-31T19:37:51.358Z,5.62
2019-03-31T19:40:32.307Z,5.61
2019-03-31T19:43:09.076Z,5.53
2019-03-31T19:45:59.207Z,5.47
2019-03-31T19:49:00.365Z,5.38
2019-03-31T19:51:52.468Z,5.26
2019-03-31T19:54:29.710Z,5.22
2019-03-31T19:57:20.385Z,5.11
2019-03-31T19:59:53.472Z,5.07
2019-03-31T20:02:30.780Z,4.96
2019-03-31T20:05:22.751Z,4.93
2019-03-31T20:08:04.332Z,4.84
2019-03-31T20:10:41.217Z,4.80
2019-03-31T20:13:31.337Z,4.76
2019-03-31T20:16:04.226Z,4.68
2019-03-31T20:18:39.086Z,4.57
2019-03-31T20:21:15.156Z,4.52
2019-03-31T20:23:48.520Z,4.46
2019-03-31T20:26:31.908Z,4.43
2019-03-31T20:29:18.416Z,4.40
2019-03-31T20:32:06.291Z,4.35
2019-03-31T20:34:44.725Z,4.31
2019-03-31T20:37:38.266Z,4.24
2019-03-31T20:40:10.380Z,4.15
2019-03-31T20:42:46.700Z,3.99
2019-03-31T20:45:18.305Z,3.90
2019-03-31T20:47:53.281Z,3.75
2019-03-31T20:50:33.521Z,3.65
2019-03-31T20:53:06.764Z,3.52
2019-03-31T20:55:38.222Z,3.39
2019-03-31T20:58:11.183Z,3.36
2019-03-31T21:00:44.312Z,3.28
2019-03-31T21:03:19.621Z,3.18
2019-03-31T21:05:54.217Z,3.11
2019-03-31T21:08:25.608Z,3.00
2019-03-31T21:11:06.934Z,2.89
2019-03-31T21:13:38.428Z,2.75
2019-03-31T21:16:11.033Z,2.62
2019-03-31T21:18:54.653Z,2.52
2019-03-31T21:21:26.593Z,2.40
2019-03-31T21:23:59.496Z,2.30
2019-03-31T21:26:31.880Z,2.22
2019-03-31T21:29:04.963Z,2.17
2019-03-31T21:31:37.246Z,2.15
2019-03-31T21:34:10.833Z,2.10
2019-03-31T21:36:45.132Z,2.05
2019-03-31T21:39:18.522Z,1.96
2019-03-31T21:41:52.282Z,1.91
2019-03-31T21:44:26.921Z,1.84
2019-03-31T21:47:02.235Z,1.82
2019-03-31T21:49:39.810Z,1.75
2019-03-31T21:52:20.049Z,1.73
2019-03-31T21:54:53.168Z,1.63
2019-03-31T21:57:26.336Z,1.60
2019-03-31T22:00:07.398Z,1.57
2019-03-31T22:02:47.850Z,1.55
2019-03-31T22:05:19.258Z,1.55
2019-03-31T22:07:51.186Z,1.55
2019-03-31T22:10:24.397Z,1.47
2019-03-31T22:12:55.749Z,1.46
2019-03-31T22:15:28.110Z,1.40
2019-03-31T22:17:59.544Z,1.37
2019-03-31T22:20:32.234Z,1.36
2019-03-31T22:23:04.913Z,1.31
2019-03-31T22:25:36.368Z,1.29
2019-03-31T22:28:07.808Z,1.27
2019-03-31T22:30:42.531Z,1.24
2019-03-31T22:33:15.646Z,1.17
2019-03-31T22:36:04.585Z,1.14
2019-03-31T22:38:36.973Z,1.13
2019-03-31T22:41:11.687Z,1.12
2019-03-31T22:43:48.618Z,1.12
2019-03-31T22:46:21.785Z,1.12
2019-03-31T22:48:56.564Z,1.07
2019-03-31T22:51:35.575Z,1.04
2019-03-31T22:54:08.405Z,1.00
2019-03-31T22:56:41.934Z,0.97
2019-03-31T22:59:15.998Z,0.96
2019-03-31T23:01:47.390Z,0.91
2019-03-31T23:04:18.810Z,0.90
2019-03-31T23:06:50.274Z,0.84
2019-03-31T23:09:26.955Z,0.83
2019-03-31T23:11:58.395Z,0.81
2019-03-31T23:14:31.080Z,0.80
2019-03-31T23:17:03.817Z,0.76
2019-03-31T23:19:39.030Z,0.76
2019-03-31T23:22:13.820Z,0.75
2019-03-31T23:24:45.935Z,0.76
2019-03-31T23:27:36.154Z,0.78
2019-03-31T23:30:11.496Z,0.75
2019-03-31T23:32:46.883Z,0.70
2019-03-31T23:35:18.327Z,0.71
2019-03-31T23:37:50.989Z,0.75
2019-03-31T23:40:23.676Z,0.73
2019-03-31T23:42:59.524Z,0.69
2019-03-31T23:45:33.741Z,0.66
2019-03-31T23:48:06.218Z,0.65
2019-03-31T23:50:38.697Z,0.62
2019-03-31T23:53:11.232Z,0.61
2019-03-31T23:55:43.760Z,0.56
2019-03-31T23:58:15.217Z,0.45
